Time;durP1;ratioP1;P1;durP2;ratioP2;P2;SDS_P1;SDS_P2;PMS_P1;PMS_P2;Temp;Humidity;BMP_temperature;BMP_pressure;BME280_temperature;BME280_humidity;BME280_pressure;Samples;Min_cycle;Max_cycle;Signal;HPM_P1;HPM_P2
2023/10/27 00:01:49;;;;;;;;;;;;;;;9.50;100.00;99156.84;5083438;28;20461;-71
2023/10/27 00:04:14;;;;;;;;;;;;;;;9.50;100.00;99148.16;5068896;28;19913;-69
2023/10/27 00:06:39;;;;;;;;;;;;;;;9.51;100.00;99148.13;5070683;28;20390;-69
2023/10/27 00:09:05;;;;;;;;;;;;;;;9.52;100.00;99159.41;5077732;28;20385;-70
2023/10/27 00:11:30;;;;;;;;;;;;;;;9.52;100.00;99154.19;5076877;28;19924;-69
2023/10/27 00:13:55;;;;;;;;;;;;;;;9.55;100.00;99156.69;5081860;28;19955;-69
2023/10/27 00:16:21;;;;;;;;;;;;;;;9.53;100.00;99145.44;5078433;28;20322;-69
2023/10/27 00:18:46;;;;;;;;;;;;;;;9.53;100.00;99137.59;5089125;28;19919;-71
2023/10/27 00:21:12;;;;;;;;;;;;;;;9.53;100.00;99137.59;5079408;28;19924;-72
2023/10/27 00:23:37;;;;;;;;;;;;;;;9.58;100.00;99140.88;5063370;28;19942;-71
2023/10/27 00:26:06;;;;;;;;;;;;;;;9.56;100.00;99140.09;5071165;28;20344;-72
2023/10/27 00:28:31;;;;;;;;;;;;;;;9.61;100.00;99143.44;5086713;28;19959;-72
2023/10/27 00:30:58;;;;;;;;;;;;;;;9.60;100.00;99141.72;5075156;28;20317;-72
2023/10/27 00:33:23;;;;;;;;;;;;;;;9.70;100.00;99140.47;5077972;28;19918;-72
2023/10/27 00:35:52;;;;;;;;;;;;;;;9.64;100.00;99135.47;5072498;28;19961;-72
2023/10/27 00:38:17;;;;;;;;;;;;;;;9.64;100.00;99137.22;5068996;28;19920;-69
2023/10/27 00:40:43;;;;;;;;;;;;;;;9.66;100.00;99131.03;5080250;28;19922;-69
2023/10/27 00:43:08;;;;;;;;;;;;;;;9.62;100.00;99132.03;5079348;28;19920;-69
2023/10/27 00:45:33;;;;;;;;;;;;;;;9.61;100.00;99132.97;5070463;28;19916;-69
2023/10/27 00:47:59;;;;;;;;;;;;;;;9.63;100.00;99128.53;5080959;28;20325;-69
2023/10/27 00:50:25;;;;;;;;;;;;;;;9.62;100.00;99125.97;5076311;28;20375;-69
2023/10/27 00:52:51;;;;;;;;;;;;;;;9.62;100.00;99123.34;5066557;28;19951;-69
2023/10/27 00:55:16;;;;;;;;;;;;;;;9.64;100.00;99126.75;5055460;28;19965;-70
2023/10/27 00:57:42;;;;;;;;;;;;;;;9.63;100.00;99123.28;5058722;28;20280;-69
2023/10/27 01:00:07;;;;;;;;;;;;;;;9.64;100.00;99129.38;5070837;28;20020;-70
2023/10/27 01:02:33;;;;;;;;;;;;;;;9.69;100.00;99125.69;5072780;28;19991;-69
2023/10/27 01:04:58;;;;;;;;;;;;;;;9.68;100.00;99129.22;5073388;28;20299;-69
2023/10/27 01:07:24;;;;;;;;;;;;;;;9.71;100.00;99123.88;5074063;28;20024;-69
2023/10/27 01:09:49;;;;;;;;;;;;;;;9.69;100.00;99123.06;5070540;28;19921;-69
2023/10/27 01:12:14;;;;;;;;;;;;;;;9.71;100.00;99120.38;5064439;28;19924;-73
2023/10/27 01:14:40;;;;;;;;;;;;;;;9.75;100.00;99118.53;5060406;28;19974;-73
2023/10/27 01:17:05;;;;;;;;;;;;;;;9.75;100.00;99115.91;5058137;28;19990;-73
2023/10/27 01:19:30;;;;;;;;;;;;;;;9.75;100.00;99115.91;5068989;28;20311;-73
2023/10/27 01:21:56;;;;;;;;;;;;;;;9.76;100.00;99118.47;5065559;28;20344;-73
2023/10/27 01:24:22;;;;;;;;;;;;;;;9.75;100.00;99115.91;5082168;28;19935;-73
2023/10/27 01:26:47;;;;;;;;;;;;;;;9.74;100.00;99111.59;5061476;28;19970;-73
2023/10/27 01:29:13;;;;;;;;;;;;;;;9.76;100.00;99113.25;5087023;28;19916;-73
2023/10/27 01:31:38;;;;;;;;;;;;;;;9.81;100.00;99119.19;5076837;28;19966;-73
2023/10/27 01:34:03;;;;;;;;;;;;;;;9.85;100.00;99118.13;5060824;28;20391;-73
2023/10/27 01:36:29;;;;;;;;;;;;;;;9.84;100.00;99110.34;5081555;28;19923;-74
2023/10/27 01:38:55;;;;;;;;;;;;;;;9.80;100.00;99114.84;5066989;28;19920;-74
2023/10/27 01:41:20;;;;;;;;;;;;;;;9.86;100.00;99108.53;5067457;28;20322;-73
2023/10/27 01:43:45;;;;;;;;;;;;;;;9.77;100.00;99109.72;5055360;28;19997;-73
2023/10/27 01:46:11;;;;;;;;;;;;;;;9.77;100.00;99111.47;5058136;28;19924;-73
2023/10/27 01:48:36;;;;;;;;;;;;;;;9.79;100.00;99109.66;5059156;28;19977;-73
2023/10/27 01:51:03;;;;;;;;;;;;;;;9.80;100.00;99104.38;5075766;28;19924;-74
2023/10/27 01:53:28;;;;;;;;;;;;;;;9.79;100.00;99099.22;5061884;28;19920;-74
2023/10/27 01:55:54;;;;;;;;;;;;;;;9.82;100.00;99099.94;5080715;28;20292;-73
2023/10/27 01:58:19;;;;;;;;;;;;;;;9.82;100.00;99102.53;5070516;28;19927;-73
2023/10/27 02:00:44;;;;;;;;;;;;;;;9.83;100.00;99103.41;5073594;28;19956;-73
2023/10/27 02:03:10;;;;;;;;;;;;;;;9.80;100.00;99095.69;5075357;28;19936;-74
2023/10/27 02:05:40;;;;;;;;;;;;;;;9.86;100.00;99095.47;5074181;28;20371;-73
2023/10/27 02:08:05;;;;;;;;;;;;;;;9.76;100.00;99092.31;5079067;28;19931;-75
2023/10/27 02:10:30;;;;;;;;;;;;;;;9.76;100.00;99091.47;5061716;28;20276;-74
2023/10/27 02:12:55;;;;;;;;;;;;;;;9.79;100.00;99092.19;5067194;28;19932;-74
2023/10/27 02:15:21;;;;;;;;;;;;;;;9.75;100.00;99089.75;5081855;28;21825;-73
2023/10/27 02:17:46;;;;;;;;;;;;;;;9.82;100.00;99080.78;5075076;28;19929;-73
2023/10/27 02:20:12;;;;;;;;;;;;;;;9.81;100.00;99087.78;5050655;28;20383;-73
2023/10/27 02:22:37;;;;;;;;;;;;;;;9.76;100.00;99081.00;5081105;28;20007;-70
2023/10/27 02:25:04;;;;;;;;;;;;;;;9.79;100.00;99078.28;5074130;28;22301;-69
2023/10/27 02:27:31;;;;;;;;;;;;;;;9.76;100.00;99084.47;5051004;28;19932;-69
2023/10/27 02:29:56;;;;;;;;;;;;;;;9.79;100.00;99073.88;5059322;28;19927;-69
2023/10/27 02:32:22;;;;;;;;;;;;;;;9.77;100.00;99077.47;5080259;28;19935;-69
2023/10/27 02:34:47;;;;;;;;;;;;;;;9.76;100.00;99073.16;5058759;28;19928;-69
2023/10/27 02:37:12;;;;;;;;;;;;;;;9.73;100.00;99078.50;5072233;28;19927;-69
2023/10/27 02:39:39;;;;;;;;;;;;;;;9.73;100.00;99073.28;5059238;28;19963;-69
2023/10/27 02:42:05;;;;;;;;;;;;;;;9.76;100.00;99067.94;5051134;28;20276;-69
2023/10/27 02:44:30;;;;;;;;;;;;;;;9.71;100.00;99073.31;5061463;28;19924;-69
2023/10/27 02:46:55;;;;;;;;;;;;;;;9.73;100.00;99066.28;5069441;28;19947;-69
2023/10/27 02:49:21;;;;;;;;;;;;;;;9.66;100.00;99064.78;5060342;28;19932;-69
2023/10/27 02:51:46;;;;;;;;;;;;;;;9.74;100.00;99068.00;5072450;28;19921;-69
2023/10/27 02:54:11;;;;;;;;;;;;;;;9.67;100.00;99071.75;5065727;28;19928;-70
2023/10/27 02:56:37;;;;;;;;;;;;;;;9.66;100.00;99062.19;5064101;28;19920;-69
2023/10/27 02:59:03;;;;;;;;;;;;;;;9.64;100.00;99066.59;5051781;28;19920;-69
2023/10/27 03:01:28;;;;;;;;;;;;;;;9.63;100.00;99063.13;5077517;28;19982;-69
2023/10/27 03:03:53;;;;;;;;;;;;;;;9.67;100.00;99056.03;5061055;28;20379;-70
2023/10/27 03:06:19;;;;;;;;;;;;;;;9.68;100.00;99049.88;5078046;28;19916;-69
2023/10/27 03:08:44;;;;;;;;;;;;;;;9.67;100.00;99053.44;5055180;28;20018;-70
2023/10/27 03:11:10;;;;;;;;;;;;;;;9.64;100.00;99062.25;5044761;28;20382;-69
2023/10/27 03:13:35;;;;;;;;;;;;;;;9.60;100.00;99055.41;5068976;28;20277;-70
2023/10/27 03:16:01;;;;;;;;;;;;;;;9.62;100.00;99057.97;5081276;28;19954;-69
2023/10/27 03:18:27;;;;;;;;;;;;;;;9.60;100.00;99044.09;5064933;28;19923;-69
2023/10/27 03:20:56;;;;;;;;;;;;;;;9.59;100.00;99056.31;5075963;28;19962;-69
2023/10/27 03:23:22;;;;;;;;;;;;;;;9.60;100.00;99050.19;5086243;28;19923;-70
2023/10/27 03:25:47;;;;;;;;;;;;;;;9.60;100.00;99054.56;5076140;28;20304;-69
2023/10/27 03:28:12;;;;;;;;;;;;;;;9.58;100.00;99053.75;5091838;28;19935;-69
2023/10/27 03:30:38;;;;;;;;;;;;;;;9.59;100.00;99052.84;5045383;28;20339;-69
2023/10/27 03:33:03;;;;;;;;;;;;;;;9.59;100.00;99051.06;5057612;28;19916;-70
2023/10/27 03:35:28;;;;;;;;;;;;;;;9.57;100.00;99050.28;5057843;28;19924;-70
2023/10/27 03:37:54;;;;;;;;;;;;;;;9.54;100.00;99047.78;5054178;28;19959;-70
2023/10/27 03:40:19;;;;;;;;;;;;;;;9.57;100.00;99052.03;5066688;28;19923;-70
2023/10/27 03:42:44;;;;;;;;;;;;;;;9.53;100.00;99048.69;5050737;28;19993;-70
2023/10/27 03:45:10;;;;;;;;;;;;;;;9.50;100.00;99046.19;5071936;28;19962;-70
2023/10/27 03:47:36;;;;;;;;;;;;;;;9.49;100.00;99049.72;5069461;28;19920;-70
2023/10/27 03:50:01;;;;;;;;;;;;;;;9.52;100.00;99049.59;5058512;28;19924;-70
2023/10/27 03:52:26;;;;;;;;;;;;;;;9.47;100.00;99044.53;5055931;28;19924;-70
2023/10/27 03:54:52;;;;;;;;;;;;;;;9.48;100.00;99046.25;5072486;28;20327;-70
2023/10/27 03:57:20;;;;;;;;;;;;;;;9.46;100.00;99042.81;5055832;28;19921;-69
2023/10/27 03:59:46;;;;;;;;;;;;;;;9.49;100.00;99039.25;5058052;28;19955;-70
2023/10/27 04:02:11;;;;;;;;;;;;;;;9.44;100.00;99039.44;5060215;28;19931;-70
2023/10/27 04:04:37;;;;;;;;;;;;;;;9.43;100.00;99045.56;5060828;28;19924;-70
2023/10/27 04:07:02;;;;;;;;;;;;;;;9.42;100.00;99036.00;5075806;28;19977;-70
2023/10/27 04:09:27;;;;;;;;;;;;;;;9.43;100.00;99042.09;5053843;28;19971;-70
2023/10/27 04:11:53;;;;;;;;;;;;;;;9.41;100.00;99036.94;5054773;28;19943;-70
2023/10/27 04:14:18;;;;;;;;;;;;;;;9.41;100.00;99038.66;5063403;28;19920;-69
2023/10/27 04:16:44;;;;;;;;;;;;;;;9.40;100.00;99035.22;5051656;28;19931;-70
2023/10/27 04:19:09;;;;;;;;;;;;;;;9.41;100.00;99036.94;5058058;28;19920;-69
2023/10/27 04:21:34;;;;;;;;;;;;;;;9.38;100.00;99038.78;5069273;28;20003;-70
2023/10/27 04:24:00;;;;;;;;;;;;;;;9.36;100.00;99036.22;5063440;28;19920;-70
2023/10/27 04:26:25;;;;;;;;;;;;;;;9.36;100.00;99037.06;5069850;28;19961;-69
2023/10/27 04:28:51;;;;;;;;;;;;;;;9.34;100.00;99036.28;5078155;28;19924;-70
2023/10/27 04:31:16;;;;;;;;;;;;;;;9.36;100.00;99042.28;5076345;28;20291;-70
2023/10/27 04:33:43;;;;;;;;;;;;;;;9.35;100.00;99039.75;5059622;28;19969;-69
2023/10/27 04:36:08;;;;;;;;;;;;;;;9.34;100.00;99041.50;5073405;28;20310;-70
2023/10/27 04:38:33;;;;;;;;;;;;;;;9.32;100.00;99038.09;5072344;28;19924;-70
2023/10/27 04:40:59;;;;;;;;;;;;;;;9.35;100.00;99035.38;5053015;28;19943;-70
2023/10/27 04:43:24;;;;;;;;;;;;;;;9.33;100.00;99037.19;5068767;28;19931;-69
2023/10/27 04:45:49;;;;;;;;;;;;;;;9.35;100.00;99044.97;5087881;28;19927;-69
2023/10/27 04:48:15;;;;;;;;;;;;;;;9.31;100.00;99039.00;5056170;28;20004;-69
2023/10/27 04:50:41;;;;;;;;;;;;;;;9.30;100.00;99039.06;5072149;28;20003;-69
2023/10/27 04:53:07;;;;;;;;;;;;;;;9.30;100.00;99046.91;5068534;28;19920;-70
2023/10/27 04:55:32;;;;;;;;;;;;;;;9.28;100.00;99041.72;5081232;28;19922;-69
2023/10/27 04:58:00;;;;;;;;;;;;;;;9.29;100.00;99038.19;5071703;28;19939;-70
2023/10/27 05:00:26;;;;;;;;;;;;;;;9.29;100.00;99040.81;5066273;28;19924;-69
2023/10/27 05:02:53;;;;;;;;;;;;;;;9.28;100.00;99039.13;5056563;28;19942;-69
2023/10/27 05:05:20;;;;;;;;;;;;;;;9.27;100.00;99040.03;5054170;28;19974;-69
2023/10/27 05:07:45;;;;;;;;;;;;;;;9.27;100.00;99037.41;5072968;28;20034;-69
2023/10/27 05:10:11;;;;;;;;;;;;;;;9.25;100.00;99033.13;5076141;28;20018;-69
2023/10/27 05:12:36;;;;;;;;;;;;;;;9.24;100.00;99032.28;5058821;28;19924;-69
2023/10/27 05:15:03;;;;;;;;;;;;;;;9.24;100.00;99029.69;5065463;28;19924;-69
2023/10/27 05:17:28;;;;;;;;;;;;;;;9.26;100.00;99030.47;5071280;28;20053;-69
2023/10/27 05:19:54;;;;;;;;;;;;;;;9.25;100.00;99023.56;5056473;28;20392;-69
2023/10/27 05:22:19;;;;;;;;;;;;;;;9.26;100.00;99025.22;5066302;28;19939;-69
2023/10/27 05:24:44;;;;;;;;;;;;;;;9.26;100.00;99025.22;5075046;28;19962;-69
2023/10/27 05:27:10;;;;;;;;;;;;;;;9.27;100.00;99023.50;5062060;28;19969;-69
2023/10/27 05:29:35;;;;;;;;;;;;;;;9.25;100.00;99020.94;5059259;28;19935;-69
2023/10/27 05:32:00;;;;;;;;;;;;;;;9.24;100.00;99020.97;5057113;28;20352;-69
2023/10/27 05:34:26;;;;;;;;;;;;;;;9.22;100.00;99023.63;5071820;28;19928;-69
2023/10/27 05:36:51;;;;;;;;;;;;;;;9.23;100.00;99014.06;5071056;28;20006;-69
2023/10/27 05:39:16;;;;;;;;;;;;;;;9.21;100.00;99024.56;5059849;28;20067;-69
2023/10/27 05:41:43;;;;;;;;;;;;;;;9.22;100.00;99018.41;5060182;28;19920;-69
2023/10/27 05:44:09;;;;;;;;;;;;;;;9.23;100.00;99020.13;5074157;28;19962;-69
2023/10/27 05:46:34;;;;;;;;;;;;;;;9.24;100.00;99018.34;5058812;28;20026;-69
2023/10/27 05:49:00;;;;;;;;;;;;;;;9.24;100.00;99015.75;5058183;28;20041;-69
2023/10/27 05:51:25;;;;;;;;;;;;;;;9.23;100.00;99011.44;5058080;28;20276;-69
2023/10/27 05:53:51;;;;;;;;;;;;;;;9.21;100.00;99011.50;5084334;28;20257;-69
2023/10/27 05:56:16;;;;;;;;;;;;;;;9.17;100.00;99020.34;5074177;28;19931;-69
2023/10/27 05:58:41;;;;;;;;;;;;;;;9.16;100.00;99018.63;5059366;28;19920;-69
2023/10/27 06:01:06;;;;;;;;;;;;;;;9.15;100.00;99015.19;5062944;28;20407;-69
2023/10/27 06:03:32;;;;;;;;;;;;;;;9.14;100.00;99016.06;5058862;28;20331;-69
2023/10/27 06:05:57;;;;;;;;;;;;;;;9.15;100.00;99019.53;5056929;28;19939;-69
2023/10/27 06:08:22;;;;;;;;;;;;;;;9.14;100.00;99023.06;5058902;28;19968;-69
2023/10/27 06:10:48;;;;;;;;;;;;;;;9.13;100.00;99024.81;5055648;28;20007;-69
2023/10/27 06:13:14;;;;;;;;;;;;;;;9.15;100.00;99023.00;5076423;28;20268;-69
2023/10/27 06:15:41;;;;;;;;;;;;;;;9.12;100.00;99025.75;5064913;28;20009;-69
2023/10/27 06:18:06;;;;;;;;;;;;;;;9.12;100.00;99030.97;5076376;28;19916;-69
2023/10/27 06:20:31;;;;;;;;;;;;;;;9.10;100.00;99021.47;5062898;28;19928;-69
2023/10/27 06:22:57;;;;;;;;;;;;;;;9.09;100.00;99027.59;5075760;28;20646;-69
2023/10/27 06:25:25;;;;;;;;;;;;;;;9.08;100.00;99031.09;5070441;28;19923;-69
2023/10/27 06:27:51;;;;;;;;;;;;;;;9.07;100.00;99027.66;5062244;28;20359;-69
2023/10/27 06:30:16;;;;;;;;;;;;;;;9.07;100.00;99029.41;5058497;28;19923;-69
2023/10/27 06:32:42;;;;;;;;;;;;;;;9.06;100.00;99030.31;5058633;28;19966;-69
2023/10/27 06:35:07;;;;;;;;;;;;;;;9.05;100.00;99020.75;5074193;28;19927;-69
2023/10/27 06:37:32;;;;;;;;;;;;;;;9.06;100.00;99014.63;5074205;28;19998;-70
2023/10/27 06:40:01;;;;;;;;;;;;;;;9.07;100.00;99021.59;5074616;28;19920;-69
2023/10/27 06:42:26;;;;;;;;;;;;;;;9.09;100.00;99022.38;5074709;28;19976;-69
2023/10/27 06:44:52;;;;;;;;;;;;;;;9.10;100.00;99019.69;5074556;28;19981;-69
2023/10/27 06:47:18;;;;;;;;;;;;;;;9.11;100.00;99021.41;5073792;28;19924;-69
2023/10/27 06:49:44;;;;;;;;;;;;;;;9.12;100.00;99022.25;5044416;28;19974;-69
2023/10/27 06:52:09;;;;;;;;;;;;;;;9.12;100.00;99028.34;5074000;28;19916;-69
2023/10/27 06:54:34;;;;;;;;;;;;;;;9.13;100.00;99029.19;5074326;28;20284;-69
2023/10/27 06:57:00;;;;;;;;;;;;;;;9.10;100.00;99024.09;5075592;28;20011;-69
2023/10/27 06:59:25;;;;;;;;;;;;;;;9.10;100.00;99029.31;5074493;28;20390;-69
2023/10/27 07:01:52;;;;;;;;;;;;;;;9.11;100.00;99036.25;5057800;28;19916;-69
2023/10/27 07:04:17;;;;;;;;;;;;;;;9.11;100.00;99034.47;5076684;28;19927;-69
2023/10/27 07:06:43;;;;;;;;;;;;;;;9.12;100.00;99038.81;5068302;28;20375;-69
2023/10/27 07:09:09;;;;;;;;;;;;;;;9.11;100.00;99038.88;5057838;28;20019;-69
2023/10/27 07:11:34;;;;;;;;;;;;;;;9.10;100.00;99044.97;5076790;28;19920;-70
2023/10/27 07:13:59;;;;;;;;;;;;;;;9.10;100.00;99045.81;5075089;28;19986;-69
2023/10/27 07:16:25;;;;;;;;;;;;;;;9.12;100.00;99053.63;5096708;28;20391;-70
2023/10/27 07:18:50;;;;;;;;;;;;;;;9.11;100.00;99051.94;5057738;28;20024;-70
2023/10/27 07:21:15;;;;;;;;;;;;;;;9.12;100.00;99054.50;5052065;28;19920;-69
2023/10/27 07:23:41;;;;;;;;;;;;;;;9.13;100.00;99058.78;5055367;28;19963;-69
2023/10/27 07:26:13;;;;;;;;;;;;;;;9.14;100.00;99063.13;5060262;28;19916;-69
2023/10/27 08:36:05;;;;;;;;;;;;;;;9.70;100.00;99098.63;5113747;28;20286;-72
2023/10/27 08:41:36;;;;;;;;;;;;;;;9.73;100.00;99086.38;5114359;28;20255;-72
2023/10/27 08:44:02;;;;;;;;;;;;;;;9.71;100.00;99084.66;5099128;28;19918;-73
2023/10/27 08:46:28;;;;;;;;;;;;;;;9.76;100.00;99108.00;5080787;28;19915;-70
2023/10/27 08:48:53;;;;;;;;;;;;;;;9.78;100.00;99098.34;5077335;28;20283;-73
2023/10/27 08:51:20;;;;;;;;;;;;;;;9.84;100.00;99110.34;5079947;28;20303;-73
2023/10/27 08:53:46;;;;;;;;;;;;;;;9.89;100.00;99118.88;5098352;28;19963;-73
2023/10/27 08:56:12;;;;;;;;;;;;;;;9.95;100.00;99113.41;5080654;28;20291;-69
2023/10/27 08:58:48;;;;;;;;;;;;;;;9.98;100.00;99118.53;5096874;28;19965;-70
2023/10/27 09:01:13;;;;;;;;;;;;;;;10.03;100.00;99115.78;5096508;28;20006;-70
2023/10/27 09:03:39;;;;;;;;;;;;;;;10.05;100.00;99109.53;5096994;28;20021;-70
2023/10/27 09:06:04;;;;;;;;;;;;;;;10.08;100.00;99118.22;5079060;28;19915;-69
2023/10/27 09:08:30;;;;;;;;;;;;;;;10.10;100.00;99116.38;5079164;28;19923;-69
2023/10/27 09:10:55;;;;;;;;;;;;;;;10.12;100.00;99125.03;5096719;28;20087;-72
2023/10/27 09:13:23;;;;;;;;;;;;;;;10.14;100.00;99117.97;5080151;28;19915;-73
2023/10/27 09:15:50;;;;;;;;;;;;;;;10.18;100.00;99119.56;5097120;28;20003;-73
2023/10/27 09:18:15;;;;;;;;;;;;;;;10.22;100.00;99124.63;5077870;28;19939;-70
2023/10/27 09:20:48;;;;;;;;;;;;;;;10.24;100.00;99129.78;5095488;28;19963;-69
2023/10/27 09:23:13;;;;;;;;;;;;;;;10.26;100.00;99128.00;5079301;28;19929;-69
2023/10/27 09:25:40;;;;;;;;;;;;;;;10.30;100.00;99129.59;5079768;28;19939;-69
2023/10/27 09:28:05;;;;;;;;;;;;;;;10.31;100.00;99127.81;5078711;28;19924;-69
2023/10/27 09:30:32;;;;;;;;;;;;;;;10.34;100.00;99127.72;5096263;28;20010;-72
2023/10/27 09:33:16;;;;;;;;;;;;;;;10.38;100.00;99138.00;5094701;28;19976;-73
2023/10/27 09:35:42;;;;;;;;;;;;;;;10.40;100.00;99130.97;5088692;28;19924;-73
2023/10/27 09:38:12;;;;;;;;;;;;;;;10.45;100.00;99132.56;5095725;28;19922;-73
2023/10/27 09:40:38;;;;;;;;;;;;;;;10.48;100.00;99129.81;5080608;28;19923;-73
2023/10/27 09:43:06;;;;;;;;;;;;;;;10.51;100.00;99132.31;5079669;28;19915;-73
2023/10/27 09:45:33;;;;;;;;;;;;;;;10.52;100.00;99129.63;5096157;28;20359;-73
2023/10/27 09:48:03;;;;;;;;;;;;;;;10.55;100.00;99144.38;5078386;28;19924;-70
2023/10/27 09:50:29;;;;;;;;;;;;;;;10.57;100.00;99145.16;5062204;28;20064;-70
2023/10/27 09:52:56;;;;;;;;;;;;;;;10.58;100.00;99137.25;5078975;28;19926;-70
2023/10/27 09:55:22;;;;;;;;;;;;;;;10.63;100.00;99125.72;5095477;28;20271;-69
2023/10/27 09:57:48;;;;;;;;;;;;;;;10.65;100.00;99116.91;5111677;28;19912;-70
2023/10/27 10:00:15;;;;;;;;;;;;;;;10.68;100.00;99106.31;5079146;28;19920;-69
2023/10/27 10:02:43;;;;;;;;;;;;;;;10.71;100.00;99121.88;5095908;28;19922;-70
2023/10/27 10:05:09;;;;;;;;;;;;;;;10.74;100.00;99128.78;5095107;28;19916;-70
2023/10/27 10:07:35;;;;;;;;;;;;;;;10.78;100.00;99129.53;5094798;28;20325;-69
2023/10/27 10:10:19;;;;;;;;;;;;;;;10.80;100.00;99130.31;5094563;28;19940;-69
2023/10/27 10:13:04;;;;;;;;;;;;;;;10.85;100.00;99125.75;5076033;28;19924;-70
2023/10/27 10:15:31;;;;;;;;;;;;;;;10.86;100.00;99130.06;5091805;28;19948;-70
2023/10/27 10:17:57;;;;;;;;;;;;;;;10.85;100.00;99125.75;5092878;28;19920;-70
2023/10/27 10:20:41;;;;;;;;;;;;;;;10.85;100.00;99131.00;5077851;28;19920;-74
2023/10/27 10:23:07;;;;;;;;;;;;;;;10.83;100.00;99135.41;5095856;28;19923;-74
2023/10/27 10:25:32;;;;;;;;;;;;;;;10.83;100.00;99138.03;5095360;28;19915;-74
2023/10/27 10:28:07;;;;;;;;;;;;;;;10.82;100.00;99136.31;5094073;28;19915;-74
2023/10/27 10:30:36;;;;;;;;;;;;;;;10.84;100.00;99143.22;5094758;28;19996;-74
2023/10/27 10:33:31;;;;;;;;;;;;;;;10.87;100.00;99160.59;5094974;28;19927;-74
2023/10/27 10:36:18;;;;;;;;;;;;;;;10.81;100.00;99153.81;5072679;28;19915;-75
2023/10/27 10:38:49;;;;;;;;;;;;;;;10.81;100.00;99160.84;5094696;28;20305;-75
2023/10/27 10:41:18;;;;;;;;;;;;;;;10.77;100.00;99161.88;5095182;28;19915;-75
2023/10/27 10:43:44;;;;;;;;;;;;;;;10.70;100.00;99156.00;5079041;28;19916;-74
2023/10/27 10:46:10;;;;;;;;;;;;;;;10.64;100.00;99158.88;5095110;28;19949;-74
2023/10/27 10:48:40;;;;;;;;;;;;;;;10.60;100.00;99158.13;5093819;28;20239;-75
2023/10/27 10:51:16;;;;;;;;;;;;;;;10.59;100.00;99156.44;5093994;28;19923;-71
2023/10/27 10:53:42;;;;;;;;;;;;;;;10.53;100.00;99159.28;5094984;28;20298;-71
2023/10/27 10:56:07;;;;;;;;;;;;;;;10.52;100.00;99157.59;5094726;28;19919;-70
2023/10/27 10:58:34;;;;;;;;;;;;;;;10.44;100.00;99162.28;5094016;28;19963;-70
2023/10/27 11:01:00;;;;;;;;;;;;;;;10.40;100.00;99157.16;5094473;28;20388;-71
2023/10/27 11:03:28;;;;;;;;;;;;;;;10.38;100.00;99152.88;5094536;28;20287;-71
2023/10/27 11:05:57;;;;;;;;;;;;;;;10.32;100.00;99153.09;5093065;28;19938;-71
2023/10/27 11:08:27;;;;;;;;;;;;;;;10.31;100.00;99152.22;5094123;28;19927;-71
2023/10/27 11:10:59;;;;;;;;;;;;;;;10.28;100.00;99147.09;5094819;28;19965;-70
2023/10/27 11:13:24;;;;;;;;;;;;;;;10.28;100.00;99152.34;5094867;28;19919;-70
2023/10/27 11:15:50;;;;;;;;;;;;;;;10.28;100.00;99147.09;5094599;28;19912;-70
2023/10/27 11:18:16;;;;;;;;;;;;;;;10.31;100.00;99146.13;5076955;28;20056;-70
2023/10/27 11:20:43;;;;;;;;;;;;;;;10.32;100.00;99153.94;5075999;28;20007;-73
2023/10/27 11:23:12;;;;;;;;;;;;;;;10.31;100.00;99151.38;5078166;28;19915;-74
2023/10/27 11:25:42;;;;;;;;;;;;;;;10.45;100.00;99153.50;5094522;28;20346;-74
2023/10/27 11:28:36;;;;;;;;;;;;;;;10.50;100.00;99135.84;5112276;28;20360;-70
2023/10/27 11:31:09;;;;;;;;;;;;;;;10.39;100.00;99144.97;5056813;28;19919;-70
2023/10/27 11:33:53;;;;;;;;;;;;;;;10.40;100.00;99156.28;5073845;28;19912;-70
2023/10/27 11:36:18;;;;;;;;;;;;;;;10.44;100.00;99150.00;5072965;28;19924;-71
2023/10/27 11:38:43;;;;;;;;;;;;;;;10.51;100.00;99150.66;5061746;28;19920;-74
2023/10/27 11:41:10;;;;;;;;;;;;;;;10.56;100.00;99146.09;5077408;28;20267;-70
2023/10/27 11:43:35;;;;;;;;;;;;;;;10.63;100.00;99142.31;5077605;28;20292;-70
2023/10/27 11:46:14;;;;;;;;;;;;;;;10.70;100.00;99150.78;5077322;28;19922;-70
2023/10/27 11:48:39;;;;;;;;;;;;;;;10.75;100.00;99147.06;5093036;28;19919;-71
2023/10/27 11:51:05;;;;;;;;;;;;;;;10.82;100.00;99142.44;5076244;28;19923;-71
2023/10/27 11:53:30;;;;;;;;;;;;;;;10.87;100.00;99139.63;5094104;28;19935;-71
2023/10/27 11:55:56;;;;;;;;;;;;;;;10.98;100.00;99142.66;5076497;28;20379;-71
2023/10/27 11:58:22;;;;;;;;;;;;;;;10.99;100.00;99139.16;5094471;28;19977;-71
2023/10/27 12:00:47;;;;;;;;;;;;;;;11.05;100.00;99144.13;5094156;28;20287;-71
2023/10/27 12:03:12;;;;;;;;;;;;;;;11.13;100.00;99135.09;5077032;28;19916;-71
2023/10/27 12:05:38;;;;;;;;;;;;;;;11.22;100.00;99135.56;5075028;28;20014;-71
2023/10/27 12:08:03;;;;;;;;;;;;;;;11.30;100.00;99143.09;5077193;28;19923;-71
2023/10/27 12:10:28;;;;;;;;;;;;;;;11.36;100.00;99142.84;5094039;28;19922;-71
2023/10/27 12:12:55;;;;;;;;;;;;;;;11.43;100.00;99141.69;5094202;28;20351;-74
2023/10/27 12:15:21;;;;;;;;;;;;;;;11.49;100.00;99143.16;5076608;28;19916;-71
2023/10/27 12:17:46;;;;;;;;;;;;;;;11.55;100.00;99147.31;5074863;28;19931;-71
2023/10/27 12:20:12;;;;;;;;;;;;;;;11.57;100.00;99141.06;5094142;28;20019;-71
2023/10/27 12:22:42;;;;;;;;;;;;;;;11.61;100.00;99149.69;5061110;28;19920;-71
2023/10/27 12:25:07;;;;;;;;;;;;;;;11.63;100.00;99155.69;5077714;28;19923;-74
2023/10/27 12:27:33;;;;;;;;;;;;;;;11.62;100.00;99154.00;5078020;28;20367;-74
2023/10/27 12:29:58;;;;;;;;;;;;;;;11.64;100.00;99149.53;5081140;28;19916;-71
2023/10/27 12:32:23;;;;;;;;;;;;;;;11.68;100.00;99152.88;5097376;28;19931;-71
2023/10/27 12:34:49;;;;;;;;;;;;;;;11.69;100.00;99152.81;5080835;28;19923;-71
2023/10/27 12:37:15;;;;;;;;;;;;;;;11.65;100.00;99153.00;5075800;28;19920;-70
2023/10/27 12:39:42;;;;;;;;;;;;;;;11.68;100.00;99155.50;5077588;28;19999;-74
2023/10/27 12:42:08;;;;;;;;;;;;;;;11.65;100.00;99153.88;5077403;28;19920;-74
2023/10/27 12:44:33;;;;;;;;;;;;;;;11.64;100.00;99154.78;5077510;28;19944;-74
2023/10/27 12:46:58;;;;;;;;;;;;;;;11.61;100.00;99161.03;5088255;28;20325;-73
2023/10/27 12:49:25;;;;;;;;;;;;;;;11.62;100.00;99154.00;5097079;28;19923;-73
2023/10/27 12:51:51;;;;;;;;;;;;;;;11.61;100.00;99147.06;5080116;28;19954;-74
2023/10/27 12:54:17;;;;;;;;;;;;;;;11.62;100.00;99156.63;5076110;28;19920;-79
2023/10/27 12:56:42;;;;;;;;;;;;;;;11.38;100.00;99155.91;5068731;28;19927;-75
2023/10/27 12:59:09;;;;;;;;;;;;;;;11.22;100.00;99153.06;5080406;28;19927;-75
2023/10/27 13:01:37;;;;;;;;;;;;;;;11.17;100.00;99152.41;5080660;28;19961;-74
2023/10/27 13:04:02;;;;;;;;;;;;;;;11.08;100.00;99153.63;5080363;28;19938;-74
2023/10/27 13:06:28;;;;;;;;;;;;;;;11.04;100.00;99152.91;5077808;28;19956;-76
2023/10/27 13:08:53;;;;;;;;;;;;;;;11.03;100.00;99151.22;5079690;28;20351;-76
2023/10/27 13:11:18;;;;;;;;;;;;;;;11.06;100.00;99158.06;5080104;28;19974;-70
2023/10/27 13:13:43;;;;;;;;;;;;;;;11.11;100.00;99163.16;5097054;28;19912;-70
2023/10/27 13:16:14;;;;;;;;;;;;;;;11.16;100.00;99166.41;5095881;28;20302;-71
2023/10/27 13:18:39;;;;;;;;;;;;;;;11.18;100.00;99164.59;5095883;28;19923;-74
2023/10/27 13:21:12;;;;;;;;;;;;;;;11.21;100.00;99167.09;5095976;28;19916;-74
2023/10/27 13:23:37;;;;;;;;;;;;;;;11.25;100.00;99166.91;5094477;28;20286;-74
2023/10/27 13:26:05;;;;;;;;;;;;;;;11.26;100.00;99167.75;5096681;28;20037;-74
2023/10/27 13:28:31;;;;;;;;;;;;;;;11.29;100.00;99167.63;5096255;28;19928;-73
2023/10/27 13:30:59;;;;;;;;;;;;;;;11.31;100.00;99176.28;5096586;28;19916;-73
2023/10/27 13:33:25;;;;;;;;;;;;;;;11.30;100.00;99169.31;5077986;28;20520;-76
2023/10/27 13:35:58;;;;;;;;;;;;;;;11.27;100.00;99174.69;5094789;28;19927;-71
2023/10/27 13:38:23;;;;;;;;;;;;;;;11.27;100.00;99172.09;5096560;28;20002;-74
2023/10/27 13:40:49;;;;;;;;;;;;;;;11.24;100.00;99170.44;5096320;28;20460;-74
2023/10/27 13:43:16;;;;;;;;;;;;;;;11.23;100.00;99160.88;5079066;28;19919;-70
2023/10/27 13:45:42;;;;;;;;;;;;;;;11.27;100.00;99169.47;5079713;28;19916;-70
2023/10/27 13:48:08;;;;;;;;;;;;;;;11.31;100.00;99170.19;5079054;28;19939;-70
2023/10/27 13:50:34;;;;;;;;;;;;;;;11.30;100.00;99174.56;5095298;28;19922;-73